Udo Maru — JM6522 — position and weather

sailwx.info

Track history (hours):
 
Tides and Currents Weather Stations Pressure Air Temp Water Temp Dewpoint Dewpoint Depression Visibility Wind Speed Wind Dir Waves Ship Positions

Udo Maru

Last reported at 2017-May-23 17:50 UTC. Time now 2017-May-26 14:49 UTC.
Position N 34°59' E 140°07'.

Length 87 m; draft 4.9 m.

Type: Cargo ship. MMSI: 431600499.

Date/timePositionNaut miles runAvg speedWind from/ knotsBaromVisibWave heightAir tempDewpointWater temp
2017-May-23 17:50N 34°59' E 140°07'1713.6
2017-May-23 16:35N 34°51' E 139°48'113.3
2017-May-23 16:29N 34°51' E 139°47'612.8
2017-May-23 15:59N 34°51' E 139°39'  
2017-May-16 23:54N 35°13' E 139°46'511.7
2017-May-16 23:30N 35°17' E 139°45'611.4
2017-May-16 23:00N 35°22' E 139°42'5 9.9
2017-May-16 22:30N 35°25' E 139°47'5 9.3
2017-May-16 22:00N 35°22' E 139°51'0 0.3
2017-May-16 21:30N 35°22' E 139°51'0 0.0
2017-May-16 21:00N 35°22' E 139°51'0 0.0
2017-May-16 20:30N 35°22' E 139°51'0 0.0
2017-May-16 19:51N 35°22' E 139°51'0 0.0
2017-May-16 19:27N 35°22' E 139°51'0 0.0
2017-May-16 18:57N 35°22' E 139°51'0 0.0
2017-May-16 18:30N 35°22' E 139°51'0 0.0
2017-May-16 18:00N 35°22' E 139°51'0 0.0
2017-May-16 17:30N 35°22' E 139°51'0 0.0
2017-May-16 17:00N 35°22' E 139°51'0 0.0
2017-May-16 16:18N 35°22' E 139°51'0 0.0
2017-May-16 16:00N 35°22' E 139°51'0 0.0
2017-May-16 15:30N 35°22' E 139°51'0 0.0
2017-May-16 15:00N 35°22' E 139°51'0 0.0
2017-May-16 14:30N 35°22' E 139°51'0 0.0
2017-May-16 13:30N 35°22' E 139°51'0 0.0
2017-May-16 12:54N 35°22' E 139°51'0 0.0
2017-May-16 12:30N 35°22' E 139°51'0 0.0
2017-May-16 11:57N 35°22' E 139°51'0 0.0
2017-May-16 11:18N 35°22' E 139°51'0 0.0
2017-May-16 10:30N 35°22' E 139°51'0 0.0
2017-May-16 09:57N 35°22' E 139°51'0 0.0
2017-May-16 09:27N 35°22' E 139°51'0 0.0
2017-May-16 09:00N 35°22' E 139°51'0 0.0
2017-May-16 08:30N 35°22' E 139°51'0 0.0
2017-May-16 07:57N 35°22' E 139°51'0 0.0
2017-May-16 07:30N 35°22' E 139°51'0 0.0
2017-May-16 07:00N 35°22' E 139°51'0 0.0
2017-May-16 06:30N 35°22' E 139°51'0 0.0
2017-May-16 06:00N 35°22' E 139°51'0 0.0
2017-May-16 05:30N 35°22' E 139°51'0 0.0
2017-May-16 05:00N 35°22' E 139°51'0 0.0
2017-May-16 04:30N 35°22' E 139°51'0 0.0
2017-May-16 04:00N 35°22' E 139°51'0 0.0
2017-May-16 03:30N 35°22' E 139°51'0 0.0
2017-May-16 03:00N 35°22' E 139°51'0 0.0
2017-May-16 02:30N 35°22' E 139°51'0 0.0
2017-May-16 02:00N 35°22' E 139°51'0 0.0
2017-May-16 01:30N 35°22' E 139°51'0 0.0
2017-May-16 01:00N 35°22' E 139°51'0 0.0
2017-May-16 00:24N 35°22' E 139°51'0 0.0
2017-May-16 00:00N 35°22' E 139°51'0 0.0
2017-May-15 23:30N 35°22' E 139°51'0 0.0
2017-May-15 22:57N 35°22' E 139°51'0 0.1
2017-May-15 22:27N 35°22' E 139°51'1 2.3
2017-May-15 21:59N 35°22' E 139°49'0 0.0
2017-May-15 21:29N 35°22' E 139°49'0 0.3
2017-May-15 21:00N 35°22' E 139°49'1 2.9
2017-May-15 20:30N 35°21' E 139°51'0 0.0
2017-May-15 20:00N 35°21' E 139°51'0 0.0
2017-May-15 19:30N 35°21' E 139°51'0 0.0
2017-May-15 19:00N 35°21' E 139°51'0 0.0
2017-May-15 18:30N 35°21' E 139°51'0 0.0
2017-May-15 18:00N 35°21' E 139°51'0 0.0
2017-May-15 17:27N 35°21' E 139°51'0 0.0
2017-May-15 17:00N 35°21' E 139°51'0 0.0
2017-May-15 16:30N 35°21' E 139°51'0 0.0
2017-May-15 15:57N 35°21' E 139°51'0 0.0
2017-May-15 15:30N 35°21' E 139°51'0 0.0
2017-May-15 15:00N 35°21' E 139°51'0 0.0
2017-May-15 14:00N 35°21' E 139°51'0 0.0
2017-May-15 13:27N 35°21' E 139°51'1 1.9
2017-May-15 13:00N 35°22' E 139°50'1 2.1
2017-May-15 12:31N 35°22' E 139°49'0 0.0
2017-May-15 12:01N 35°22' E 139°49'0 0.0
2017-May-15 11:31N 35°22' E 139°49'0 0.0
2017-May-15 11:01N 35°22' E 139°49'0 0.1
2017-May-15 10:28N 35°22' E 139°49'0 0.0
2017-May-15 10:00N 35°22' E 139°49'0 0.0
2017-May-15 09:30N 35°22' E 139°49'0 0.1
2017-May-15 09:00N 35°22' E 139°49'0 0.0
2017-May-15 08:30N 35°22' E 139°49'3 6.1
2017-May-15 08:00N 35°25' E 139°50'511.1
2017-May-15 07:30N 35°31' E 139°52'1 1.9
2017-May-15 07:00N 35°31' E 139°51'0 0.0
2017-May-15 06:30N 35°31' E 139°51'3 5.8
2017-May-15 06:00N 35°34' E 139°52'510.0
2017-May-15 05:30N 35°38' E 139°48'0 0.1
2017-May-15 04:45N 35°38' E 139°48'0 0.1
2017-May-15 04:30N 35°38' E 139°48'0 0.0
2017-May-15 03:39N 35°38' E 139°48'0 0.0
2017-May-15 03:15N 35°38' E 139°48'0 0.0
2017-May-15 01:09N 35°38' E 139°48'0 0.1
2017-May-15 00:57N 35°38' E 139°48'0 0.0
2017-May-15 00:30N 35°38' E 139°48'3 5.2
2017-May-15 00:00N 35°36' E 139°50'1 2.6
2017-May-14 23:30N 35°35' E 139°51'0 0.1
2017-May-14 23:00N 35°35' E 139°51'0 0.0
2017-May-14 22:29N 35°35' E 139°51'0 0.0
2017-May-14 22:00N 35°35' E 139°51'0 0.0
2017-May-14 21:30N 35°35' E 139°51'0 0.1
2017-May-14 21:00N 35°35' E 139°51'0 0.6
2017-May-14 20:30N 35°35' E 139°52'5 9.3
2017-May-14 20:00N 35°30' E 139°52'510.6
2017-May-14 19:30N 35°26' E 139°48'510.9
2017-May-14 19:00N 35°21' E 139°45'510.0
2017-May-14 18:30N 35°16' E 139°46'510.0
2017-May-14 18:00N 35°11' E 139°46'510.1
2017-May-14 17:30N 35°07' E 139°43'611.0
2017-May-14 17:00N 35°04' E 139°38'611.2
2017-May-14 16:30N 35°01' E 139°32'  
Track history (hours):
 
Tides and Currents Weather Stations Pressure Air Temp Water Temp Dewpoint Dewpoint Depression Visibility Wind Speed Wind Dir Waves Ship Positions

Udo Maru

Last reported at 2017-May-23 17:50 UTC. Time now 2017-May-26 14:49 UTC.
Position N 34°59' E 140°07'.

Length 87 m; draft 4.9 m.

Type: Cargo ship. MMSI: 431600499.

Date/timePositionNaut miles runAvg speedWind from/ knotsBaromVisibWave heightAir tempDewpointWater temp
2017-May-23 17:50N 34°59' E 140°07'1713.6
2017-May-23 16:35N 34°51' E 139°48'113.3
2017-May-23 16:29N 34°51' E 139°47'612.8
2017-May-23 15:59N 34°51' E 139°39'  
2017-May-16 23:54N 35°13' E 139°46'511.7
2017-May-16 23:30N 35°17' E 139°45'611.4
2017-May-16 23:00N 35°22' E 139°42'5 9.9
2017-May-16 22:30N 35°25' E 139°47'5 9.3
2017-May-16 22:00N 35°22' E 139°51'0 0.3
2017-May-16 21:30N 35°22' E 139°51'0 0.0
2017-May-16 21:00N 35°22' E 139°51'0 0.0
2017-May-16 20:30N 35°22' E 139°51'0 0.0
2017-May-16 19:51N 35°22' E 139°51'0 0.0
2017-May-16 19:27N 35°22' E 139°51'0 0.0
2017-May-16 18:57N 35°22' E 139°51'0 0.0
2017-May-16 18:30N 35°22' E 139°51'0 0.0
2017-May-16 18:00N 35°22' E 139°51'0 0.0
2017-May-16 17:30N 35°22' E 139°51'0 0.0
2017-May-16 17:00N 35°22' E 139°51'0 0.0
2017-May-16 16:18N 35°22' E 139°51'0 0.0
2017-May-16 16:00N 35°22' E 139°51'0 0.0
2017-May-16 15:30N 35°22' E 139°51'0 0.0
2017-May-16 15:00N 35°22' E 139°51'0 0.0
2017-May-16 14:30N 35°22' E 139°51'0 0.0
2017-May-16 13:30N 35°22' E 139°51'0 0.0
2017-May-16 12:54N 35°22' E 139°51'0 0.0
2017-May-16 12:30N 35°22' E 139°51'0 0.0
2017-May-16 11:57N 35°22' E 139°51'0 0.0
2017-May-16 11:18N 35°22' E 139°51'0 0.0
2017-May-16 10:30N 35°22' E 139°51'0 0.0
2017-May-16 09:57N 35°22' E 139°51'0 0.0
2017-May-16 09:27N 35°22' E 139°51'0 0.0
2017-May-16 09:00N 35°22' E 139°51'0 0.0
2017-May-16 08:30N 35°22' E 139°51'0 0.0
2017-May-16 07:57N 35°22' E 139°51'0 0.0
2017-May-16 07:30N 35°22' E 139°51'0 0.0
2017-May-16 07:00N 35°22' E 139°51'0 0.0
2017-May-16 06:30N 35°22' E 139°51'0 0.0
2017-May-16 06:00N 35°22' E 139°51'0 0.0
2017-May-16 05:30N 35°22' E 139°51'0 0.0
2017-May-16 05:00N 35°22' E 139°51'0 0.0
2017-May-16 04:30N 35°22' E 139°51'0 0.0
2017-May-16 04:00N 35°22' E 139°51'0 0.0
2017-May-16 03:30N 35°22' E 139°51'0 0.0
2017-May-16 03:00N 35°22' E 139°51'0 0.0
2017-May-16 02:30N 35°22' E 139°51'0 0.0
2017-May-16 02:00N 35°22' E 139°51'0 0.0
2017-May-16 01:30N 35°22' E 139°51'0 0.0
2017-May-16 01:00N 35°22' E 139°51'0 0.0
2017-May-16 00:24N 35°22' E 139°51'0 0.0
2017-May-16 00:00N 35°22' E 139°51'0 0.0
2017-May-15 23:30N 35°22' E 139°51'0 0.0
2017-May-15 22:57N 35°22' E 139°51'0 0.1
2017-May-15 22:27N 35°22' E 139°51'1 2.3
2017-May-15 21:59N 35°22' E 139°49'0 0.0
2017-May-15 21:29N 35°22' E 139°49'0 0.3
2017-May-15 21:00N 35°22' E 139°49'1 2.9
2017-May-15 20:30N 35°21' E 139°51'0 0.0
2017-May-15 20:00N 35°21' E 139°51'0 0.0
2017-May-15 19:30N 35°21' E 139°51'0 0.0
2017-May-15 19:00N 35°21' E 139°51'0 0.0
2017-May-15 18:30N 35°21' E 139°51'0 0.0
2017-May-15 18:00N 35°21' E 139°51'0 0.0
2017-May-15 17:27N 35°21' E 139°51'0 0.0
2017-May-15 17:00N 35°21' E 139°51'0 0.0
2017-May-15 16:30N 35°21' E 139°51'0 0.0
2017-May-15 15:57N 35°21' E 139°51'0 0.0
2017-May-15 15:30N 35°21' E 139°51'0 0.0
2017-May-15 15:00N 35°21' E 139°51'0 0.0
2017-May-15 14:00N 35°21' E 139°51'0 0.0
2017-May-15 13:27N 35°21' E 139°51'1 1.9
2017-May-15 13:00N 35°22' E 139°50'1 2.1
2017-May-15 12:31N 35°22' E 139°49'0 0.0
2017-May-15 12:01N 35°22' E 139°49'0 0.0
2017-May-15 11:31N 35°22' E 139°49'0 0.0
2017-May-15 11:01N 35°22' E 139°49'0 0.1
2017-May-15 10:28N 35°22' E 139°49'0 0.0
2017-May-15 10:00N 35°22' E 139°49'0 0.0
2017-May-15 09:30N 35°22' E 139°49'0 0.1
2017-May-15 09:00N 35°22' E 139°49'0 0.0
2017-May-15 08:30N 35°22' E 139°49'3 6.1
2017-May-15 08:00N 35°25' E 139°50'511.1
2017-May-15 07:30N 35°31' E 139°52'1 1.9
2017-May-15 07:00N 35°31' E 139°51'0 0.0
2017-May-15 06:30N 35°31' E 139°51'3 5.8
2017-May-15 06:00N 35°34' E 139°52'510.0
2017-May-15 05:30N 35°38' E 139°48'0 0.1
2017-May-15 04:45N 35°38' E 139°48'0 0.1
2017-May-15 04:30N 35°38' E 139°48'0 0.0
2017-May-15 03:39N 35°38' E 139°48'0 0.0
2017-May-15 03:15N 35°38' E 139°48'0 0.0
2017-May-15 01:09N 35°38' E 139°48'0 0.1
2017-May-15 00:57N 35°38' E 139°48'0 0.0
2017-May-15 00:30N 35°38' E 139°48'3 5.2
2017-May-15 00:00N 35°36' E 139°50'1 2.6
2017-May-14 23:30N 35°35' E 139°51'0 0.1
2017-May-14 23:00N 35°35' E 139°51'0 0.0
2017-May-14 22:29N 35°35' E 139°51'0 0.0
2017-May-14 22:00N 35°35' E 139°51'0 0.0
2017-May-14 21:30N 35°35' E 139°51'0 0.1
2017-May-14 21:00N 35°35' E 139°51'0 0.6
2017-May-14 20:30N 35°35' E 139°52'5 9.3
2017-May-14 20:00N 35°30' E 139°52'510.6
2017-May-14 19:30N 35°26' E 139°48'510.9
2017-May-14 19:00N 35°21' E 139°45'510.0
2017-May-14 18:30N 35°16' E 139°46'510.0
2017-May-14 18:00N 35°11' E 139°46'510.1
2017-May-14 17:30N 35°07' E 139°43'611.0
2017-May-14 17:00N 35°04' E 139°38'611.2
2017-May-14 16:30N 35°01' E 139°32'  

Dump ship's entire track history